Time;durP1;ratioP1;P1;durP2;ratioP2;P2;SDS_P1;SDS_P2;PMS_P1;PMS_P2;Temp;Humidity;BMP_temperature;BMP_pressure;BME280_temperature;BME280_humidity;BME280_pressure;Samples;Min_cycle;Max_cycle;Signal;HPM_P1;HPM_P2
2022/12/26 00:01:48;;;;;;;19.00;11.87;;;;;;;-143.84;81.93;45089.06;5030333;28;21476;-77
2022/12/26 00:04:16;;;;;;;16.87;11.60;;;;;;;-143.84;81.50;45094.78;5030215;28;20438;-81
2022/12/26 00:06:44;;;;;;;15.13;10.13;;;;;;;-143.84;81.35;45098.56;5031102;28;20505;-79
2022/12/26 00:09:12;;;;;;;14.33;9.70;;;;;;;-143.84;80.79;45110.00;5030947;28;20443;-78
2022/12/26 00:11:40;;;;;;;14.27;10.70;;;;;;;-143.84;80.87;45121.44;5031167;28;20438;-78
2022/12/26 00:14:09;;;;;;;13.30;9.70;;;;;;;-143.84;80.08;45121.44;5028805;28;20521;-78
2022/12/26 00:16:37;;;;;;;13.77;9.33;;;;;;;-143.84;80.08;45123.34;5024764;28;20467;-80
2022/12/26 00:19:05;;;;;;;14.60;9.37;;;;;;;-143.84;79.46;45148.09;5031778;28;20949;-79
2022/12/26 00:21:32;;;;;;;12.10;8.80;;;;;;;-143.84;78.84;45119.53;5037135;28;20915;-79
2022/12/26 00:24:00;;;;;;;15.13;9.73;;;;;;;-143.84;78.60;45144.28;5051522;28;20835;-79
2022/12/26 00:26:31;;;;;;;15.53;9.93;;;;;;;-143.84;78.14;45195.69;5051383;28;20539;-79
2022/12/26 00:28:59;;;;;;;12.87;8.17;;;;;;;-143.84;77.73;45155.69;5051131;28;20453;-79
2022/12/26 00:31:28;;;;;;;8.80;7.80;;;;;;;-143.84;77.55;45195.69;5051500;28;20515;-80
2022/12/26 00:33:55;;;;;;;10.83;7.77;;;;;;;-143.84;77.46;45151.91;5038964;28;20811;-79
2022/12/26 00:36:26;;;;;;;10.43;8.10;;;;;;;-143.84;76.89;45155.69;5055983;28;20433;-79
2022/12/26 00:38:54;;;;;;;15.93;8.07;;;;;;;-143.84;77.01;45165.22;5038830;28;20986;-79
2022/12/26 00:41:22;;;;;;;10.77;7.53;;;;;;;-143.84;76.29;45161.41;5051369;28;20446;-79
2022/12/26 00:43:50;;;;;;;10.40;8.20;;;;;;;-143.84;76.55;45218.53;5051914;28;20503;-79
2022/12/26 00:46:18;;;;;;;11.70;7.53;;;;;;;-143.84;76.46;45142.38;5063558;28;20480;-79
2022/12/26 00:48:45;;;;;;;12.07;7.17;;;;;;;-143.84;76.34;45150.00;5069986;28;20570;-79
2022/12/26 00:51:13;;;;;;;12.23;8.33;;;;;;;-143.84;76.08;45172.84;5066259;28;20439;-79
2022/12/26 00:53:40;;;;;;;11.40;7.17;;;;;;;-143.84;76.05;45167.13;5063562;28;20442;-79
2022/12/26 00:56:08;;;;;;;14.93;9.17;;;;;;;-143.84;76.15;45197.59;5055553;28;20968;-79
2022/12/26 00:58:37;;;;;;;9.50;7.77;;;;;;;-143.84;76.26;45161.41;5055379;28;20450;-79
2022/12/26 01:01:10;;;;;;;9.47;8.10;;;;;;;-143.84;76.60;45163.31;5055299;28;20445;-79
2022/12/26 01:03:38;;;;;;;12.47;8.10;;;;;;;-143.84;76.23;45207.13;5055374;28;20499;-79
2022/12/26 01:06:06;;;;;;;11.80;8.10;;;;;;;-143.84;76.52;45193.78;5055506;28;20469;-79
2022/12/26 01:08:33;;;;;;;10.67;8.60;;;;;;;-143.84;76.33;45167.13;5055161;28;20442;-79
2022/12/26 01:11:05;;;;;;;15.20;8.70;;;;;;;-143.84;76.18;45159.50;5055213;28;20442;-79
2022/12/26 01:13:32;;;;;;;10.80;8.33;;;;;;;-143.84;76.17;45180.47;5055041;28;20528;-79
2022/12/26 01:16:01;;;;;;;12.47;8.47;;;;;;;-143.84;75.93;45148.09;5055384;28;20446;-79
2022/12/26 01:18:29;;;;;;;12.73;8.00;;;;;;;-143.84;75.14;45176.66;5054719;28;20442;-79
2022/12/26 01:21:00;;;;;;;10.77;7.03;;;;;;;-143.84;74.68;45167.13;5054629;28;20442;-79
2022/12/26 01:23:27;;;;;;;11.90;7.20;;;;;;;-143.84;74.26;45180.47;5054212;28;20445;-79
2022/12/26 01:25:55;;;;;;;10.50;8.20;;;;;;;-143.84;74.46;45186.16;5054587;28;20714;-80
2022/12/26 01:28:22;;;;;;;8.77;6.93;;;;;;;-143.84;74.43;45178.56;5054569;28;20450;-79
2022/12/26 01:30:49;;;;;;;10.43;7.30;;;;;;;-143.84;74.50;45176.66;5054552;28;20438;-79
2022/12/26 01:33:18;;;;;;;10.07;7.40;;;;;;;-143.84;74.21;45186.16;5053956;28;20958;-79
2022/12/26 01:35:52;;;;;;;10.40;6.60;;;;;;;-143.84;73.50;45182.38;5054247;28;21065;-79
2022/12/26 01:38:20;;;;;;;7.80;5.80;;;;;;;-143.84;73.73;45159.50;5053670;28;20452;-79
2022/12/26 01:40:47;;;;;;;10.03;6.50;;;;;;;-143.84;73.38;45161.41;5052141;28;20819;-79
2022/12/26 01:43:16;;;;;;;9.20;7.10;;;;;;;-143.84;73.39;45157.59;5054007;28;20842;-78
2022/12/26 01:45:44;;;;;;;10.27;7.60;;;;;;;-143.84;73.45;45199.50;5054808;28;20882;-78
2022/12/26 01:48:16;;;;;;;10.77;7.83;;;;;;;-143.84;73.99;45201.41;5054598;28;20446;-78
2022/12/26 01:50:52;;;;;;;9.77;7.93;;;;;;;-143.84;73.49;45191.88;5054584;28;20434;-78
2022/12/26 01:53:24;;;;;;;12.20;7.37;;;;;;;-143.84;73.18;45195.69;5054430;28;20445;-77
2022/12/26 01:55:56;;;;;;;7.43;6.07;;;;;;;-143.84;73.02;45172.84;5054215;28;20438;-77
2022/12/26 01:58:30;;;;;;;9.80;6.00;;;;;;;-143.84;73.01;45186.16;5054023;28;20430;-78
2022/12/26 02:00:58;;;;;;;7.00;6.10;;;;;;;-143.84;72.90;45193.78;5054154;28;20896;-78
2022/12/26 02:06:23;;;;;;;7.70;5.80;;;;;;;-143.84;72.56;45180.47;4992654;28;20551;-78
2022/12/26 02:08:50;;;;;;;10.40;6.63;;;;;;;-143.84;73.02;45195.69;5039669;28;20437;-78
2022/12/26 02:11:21;;;;;;;9.60;5.27;;;;;;;-143.84;72.48;45176.66;5054054;28;20438;-78
2022/12/26 02:13:49;;;;;;;7.80;6.50;;;;;;;-143.84;72.90;45193.78;5053997;28;20476;-78
2022/12/26 02:16:18;;;;;;;7.23;5.63;;;;;;;-143.84;72.53;45212.84;5054009;28;20852;-77
2022/12/26 02:18:45;;;;;;;7.33;5.70;;;;;;;-143.84;72.45;45203.31;5054049;28;20426;-78
2022/12/26 02:21:40;;;;;;;9.63;6.13;;;;;;;-143.84;71.76;45184.25;5053628;28;20544;-78
2022/12/26 02:24:30;;;;;;;9.67;6.93;;;;;;;-143.84;72.10;45191.88;5053783;28;20496;-78
2022/12/26 02:27:10;;;;;;;7.57;6.50;;;;;;;-143.84;72.12;45159.50;5053474;28;20485;-77
2022/12/26 02:30:07;;;;;;;8.40;6.07;;;;;;;-143.84;72.28;45191.88;5053545;28;20959;-77
2022/12/26 02:32:53;;;;;;;10.07;6.53;;;;;;;-143.84;71.84;45178.56;5053397;28;20547;-77
2022/12/26 02:35:32;;;;;;;6.87;5.67;;;;;;;-143.84;71.71;45163.31;5053694;28;20446;-77
2022/12/26 02:38:12;;;;;;;7.30;5.87;;;;;;;-143.84;72.11;45195.69;5053714;28;20503;-79
2022/12/26 02:40:52;;;;;;;6.77;5.97;;;;;;;-143.84;72.21;45193.78;5053626;28;20434;-80
2022/12/26 02:43:24;;;;;;;8.93;6.50;;;;;;;-143.84;72.13;45153.81;5053454;28;20430;-80
2022/12/26 02:48:58;;;;;;;10.30;6.27;;;;;;;-143.84;72.34;45180.47;5053463;28;20994;-80
2022/12/26 03:14:24;;;;;;;7.43;5.80;;;;;;;-143.84;71.96;45203.31;5052953;28;20970;-81
2022/12/26 03:19:57;;;;;;;9.70;6.57;;;;;;;-143.84;72.59;45161.41;5052517;28;20414;-80
2022/12/26 03:22:32;;;;;;;6.83;5.57;;;;;;;-143.84;71.96;45207.13;5050621;28;20489;-80
2022/12/26 03:27:51;;;;;;;8.23;6.23;;;;;;;-143.84;72.20;45193.78;5052601;28;20615;-80
2022/12/26 03:33:03;;;;;;;9.63;7.20;;;;;;;-143.84;73.10;45205.22;5052337;28;20425;-83
2022/12/26 03:35:32;;;;;;;7.40;6.33;;;;;;;-143.84;73.09;45207.13;5052459;28;20507;-83
2022/12/26 03:38:08;;;;;;;8.70;6.90;;;;;;;-143.84;73.26;45201.41;5052169;28;20442;-83
2022/12/26 04:21:07;;;;;;;5.30;4.80;;;;;;;-143.84;72.31;45216.63;5051890;28;20501;-83
2022/12/26 04:46:24;;;;;;;7.57;6.00;;;;;;;-143.84;72.89;45186.16;5009974;28;20482;-82
2022/12/26 04:51:39;;;;;;;4.30;3.90;;;;;;;-143.84;72.51;45193.78;5039500;28;20801;-82
2022/12/26 04:54:07;;;;;;;8.03;5.40;;;;;;;-143.84;72.33;45186.16;5051764;28;20841;-83
2022/12/26 04:56:34;;;;;;;7.67;6.07;;;;;;;-143.84;72.50;45212.84;5051753;28;20946;-82
2022/12/26 04:59:02;;;;;;;7.60;5.50;;;;;;;-143.84;72.19;45191.88;5051461;28;20426;-82
2022/12/26 05:09:50;;;;;;;10.20;4.80;;;;;;;-143.84;72.09;45205.22;5051706;28;21127;-82
2022/12/26 05:12:17;;;;;;;3.80;3.50;;;;;;;-143.84;72.24;45199.50;5051764;28;20504;-82
2022/12/26 05:14:44;;;;;;;3.80;3.57;;;;;;;-143.84;72.17;45214.72;5051604;28;20900;-82
2022/12/26 05:31:01;;;;;;;4.50;4.00;;;;;;;-143.84;71.44;45172.84;5051431;28;20429;-83
2022/12/26 05:36:17;;;;;;;4.33;3.90;;;;;;;-143.84;71.84;45161.41;5054768;28;20435;-83
2022/12/26 05:38:45;;;;;;;4.20;3.87;;;;;;;-143.84;71.28;45205.22;5054650;28;20575;-83
2022/12/26 05:41:12;;;;;;;4.40;4.00;;;;;;;-143.84;71.45;45188.06;5055029;28;20438;-83
2022/12/26 05:43:39;;;;;;;4.73;4.00;;;;;;;-143.84;71.83;45191.88;5054646;28;20433;-83
2022/12/26 05:46:06;;;;;;;8.17;4.77;;;;;;;-143.84;71.27;45195.69;5054555;28;20441;-83
2022/12/26 05:48:35;;;;;;;4.47;4.03;;;;;;;-143.84;71.19;45199.50;5054801;28;20438;-83
2022/12/26 05:51:04;;;;;;;5.43;3.40;;;;;;;-143.84;70.74;45212.84;5054692;28;20560;-83
2022/12/26 05:53:32;;;;;;;5.07;3.60;;;;;;;-143.84;70.94;45209.03;5054349;28;20504;-83
2022/12/26 05:56:04;;;;;;;3.93;3.60;;;;;;;-143.84;70.67;45207.13;5054497;28;20434;-83
2022/12/26 05:58:31;;;;;;;5.30;3.27;;;;;;;-143.84;71.11;45199.50;5054457;28;20525;-83
2022/12/26 06:01:06;;;;;;;4.20;3.47;;;;;;;-143.84;70.25;45195.69;5037121;28;20512;-83
2022/12/26 06:03:35;;;;;;;4.50;3.33;;;;;;;-143.84;70.44;45176.66;5054202;28;20426;-83
2022/12/26 06:06:03;;;;;;;3.60;3.30;;;;;;;-143.84;70.51;45209.03;5054080;28;21053;-83
2022/12/26 06:08:30;;;;;;;5.23;3.43;;;;;;;-143.84;70.61;45218.53;5054291;28;20473;-83
2022/12/26 06:10:57;;;;;;;4.37;3.93;;;;;;;-143.84;70.29;45226.16;5054326;28;20442;-83
2022/12/26 06:13:25;;;;;;;3.77;3.30;;;;;;;-143.84;70.50;45222.34;5053817;28;20555;-83
2022/12/26 06:15:52;;;;;;;3.07;2.87;;;;;;;-143.84;70.26;45191.88;5053564;28;20491;-83
2022/12/26 06:18:19;;;;;;;4.27;3.23;;;;;;;-143.84;70.22;45195.69;5053847;28;20501;-83
2022/12/26 06:20:48;;;;;;;3.30;3.00;;;;;;;-143.84;69.92;45182.38;5053169;28;20450;-82
2022/12/26 06:23:15;;;;;;;5.80;3.50;;;;;;;-143.84;69.60;45228.06;5051353;28;20531;-83
2022/12/26 06:25:43;;;;;;;5.30;2.87;;;;;;;-143.84;69.97;45182.38;5052299;28;20537;-83
2022/12/26 06:28:10;;;;;;;3.13;2.93;;;;;;;-143.84;69.03;45191.88;5053958;28;21315;-83
2022/12/26 06:30:37;;;;;;;3.20;2.90;;;;;;;-143.84;69.09;45176.66;5053797;28;20456;-83
2022/12/26 06:33:04;;;;;;;3.50;2.70;;;;;;;-143.84;68.82;45170.94;5053746;28;20442;-83
2022/12/26 06:35:34;;;;;;;6.23;3.57;;;;;;;-143.84;68.82;45172.84;5053227;28;20450;-79
2022/12/26 06:38:02;;;;;;;2.80;2.60;;;;;;;-143.84;68.61;45207.13;5053148;28;20475;-79
2022/12/26 06:40:29;;;;;;;3.30;2.60;;;;;;;-143.84;68.29;45203.31;5052790;28;20445;-79
2022/12/26 06:42:56;;;;;;;2.43;2.23;;;;;;;-143.84;68.45;45205.22;5052073;28;20442;-79
2022/12/26 06:45:24;;;;;;;3.20;2.90;;;;;;;-143.84;67.56;45201.41;5053513;28;20986;-79
2022/12/26 06:47:51;;;;;;;9.87;7.77;;;;;;;-143.84;68.07;45197.59;5054035;28;20852;-79
2022/12/26 06:50:20;;;;;;;15.17;10.23;;;;;;;-143.84;68.21;45195.69;5053933;28;20429;-79
2022/12/26 06:52:47;;;;;;;16.70;10.67;;;;;;;-143.84;68.89;45163.31;5053983;28;20477;-79
2022/12/26 06:55:16;;;;;;;16.93;9.97;;;;;;;-143.84;68.27;45170.94;5053654;28;20433;-79
2022/12/26 06:57:43;;;;;;;12.57;8.40;;;;;;;-143.84;67.68;45201.41;5053707;28;20435;-79
2022/12/26 07:00:11;;;;;;;15.33;9.00;;;;;;;-143.84;67.70;45193.78;5053506;28;20447;-79
2022/12/26 07:02:38;;;;;;;11.37;8.60;;;;;;;-143.84;67.13;45174.75;5053240;28;20790;-79
2022/12/26 07:05:06;;;;;;;6.50;5.80;;;;;;;-143.84;66.05;45193.78;5053453;28;20435;-79
2022/12/26 07:07:33;;;;;;;9.87;5.50;;;;;;;-143.84;65.79;45174.75;5053504;28;20473;-79
2022/12/26 07:10:01;;;;;;;11.33;5.03;;;;;;;-143.84;62.99;45189.97;5053351;28;20445;-80
2022/12/26 07:12:29;;;;;;;10.47;4.77;;;;;;;-143.84;63.25;45167.13;5052910;28;20430;-80
2022/12/26 07:14:57;;;;;;;6.10;5.20;;;;;;;-143.84;62.54;45199.50;5053247;28;20439;-80
2022/12/26 07:17:24;;;;;;;10.10;6.30;;;;;;;-143.84;61.93;45144.28;5052840;28;20471;-79
2022/12/26 07:19:51;;;;;;;7.00;5.40;;;;;;;-143.84;60.89;45172.84;5052731;28;20442;-79
2022/12/26 07:22:18;;;;;;;5.50;4.20;;;;;;;-143.84;59.47;45151.91;5052399;28;20486;-79
2022/12/26 07:24:45;;;;;;;2.83;2.63;;;;;;;-143.84;55.56;45148.09;5053334;28;20490;-80
2022/12/26 07:27:12;;;;;;;2.07;1.97;;;;;;;-143.84;54.55;45159.50;5053073;28;20480;-80
2022/12/26 07:29:41;;;;;;;2.00;1.80;;;;;;;-143.84;52.98;45151.91;5052799;28;20442;-80
2022/12/26 07:32:08;;;;;;;2.00;1.80;;;;;;;-143.84;52.14;45172.84;5052792;28;20448;-80
2022/12/26 07:34:35;;;;;;;2.33;2.23;;;;;;;-143.84;51.47;45163.31;5049940;28;20960;-80
2022/12/26 07:37:03;;;;;;;1.93;1.67;;;;;;;-143.84;49.68;45148.09;5052369;28;20446;-79
2022/12/26 07:39:30;;;;;;;2.00;1.90;;;;;;;-143.84;47.66;45140.47;5052252;28;20437;-80
2022/12/26 07:41:57;;;;;;;1.97;1.87;;;;;;;-143.84;46.95;45159.50;5052131;28;20948;-80
2022/12/26 07:44:24;;;;;;;1.70;1.60;;;;;;;-143.84;46.38;45150.00;5052353;28;20488;-81
2022/12/26 07:46:53;;;;;;;1.80;1.70;;;;;;;-143.84;46.07;45132.84;5052415;28;20495;-80
2022/12/26 07:49:20;;;;;;;2.53;2.07;;;;;;;-143.84;45.50;45159.50;5052286;28;20448;-82
2022/12/26 07:51:48;;;;;;;5.90;1.63;;;;;;;-143.84;43.72;45132.84;5052477;28;20498;-81
2022/12/26 07:54:15;;;;;;;4.70;1.90;;;;;;;-143.84;42.80;45150.00;5052205;28;21189;-82
2022/12/26 07:56:42;;;;;;;2.07;1.97;;;;;;;-143.84;43.62;45115.72;5051605;28;20941;-84
2022/12/26 07:59:14;;;;;;;3.43;2.07;;;;;;;-143.84;42.89;45163.31;5052068;28;20434;-86
2022/12/26 08:01:41;;;;;;;2.60;2.40;;;;;;;-143.84;42.79;45134.75;5052010;28;20511;-87
2022/12/26 08:04:11;;;;;;;2.97;2.60;;;;;;;-143.84;42.42;45125.22;5051927;28;20939;-81
2022/12/26 08:06:38;;;;;;;8.30;4.87;;;;;;;-143.84;41.62;45127.13;5052043;28;20441;-80
2022/12/26 08:09:06;;;;;;;18.73;7.93;;;;;;;-143.84;42.19;45119.53;5051859;28;20487;-85
2022/12/26 08:11:35;;;;;;;6.30;5.70;;;;;;;-143.84;42.22;45170.94;5052225;28;20508;-88
2022/12/26 08:14:03;;;;;;;8.87;6.20;;;;;;;-143.84;41.99;45127.13;5052281;28;20418;-84
2022/12/26 08:16:30;;;;;;;6.60;6.00;;;;;;;-143.84;41.47;45117.63;5051966;28;20530;-85
2022/12/26 08:18:58;;;;;;;9.60;5.73;;;;;;;-143.84;41.23;45138.56;5051831;28;20449;-85
2022/12/26 08:21:26;;;;;;;11.50;5.53;;;;;;;-143.84;40.65;45096.66;5051730;28;20488;-85
2022/12/26 08:23:53;;;;;;;12.10;8.07;;;;;;;-143.84;41.22;45106.19;5051646;28;20435;-82
2022/12/26 08:26:22;;;;;;;34.90;19.20;;;;;;;-143.84;41.54;45125.22;5052350;28;20432;-80
2022/12/26 08:28:50;;;;;;;31.30;15.07;;;;;;;-143.84;41.66;45108.09;5051654;28;20485;-85
2022/12/26 08:31:18;;;;;;;17.93;12.43;;;;;;;-143.84;41.25;45157.59;5051946;28;20931;-84
2022/12/26 08:33:45;;;;;;;13.73;9.40;;;;;;;-143.84;41.28;45134.75;5051556;28;20440;-84
2022/12/26 08:36:15;;;;;;;11.97;8.80;;;;;;;-143.84;40.26;45125.22;5051588;28;20869;-84
2022/12/26 08:38:44;;;;;;;9.27;6.40;;;;;;;-143.84;39.91;45129.03;5051668;28;20430;-85
2022/12/26 08:41:11;;;;;;;14.13;9.20;;;;;;;-143.84;40.18;45119.53;5051698;28;20457;-86
2022/12/26 08:43:39;;;;;;;16.77;8.67;;;;;;;-143.84;40.48;45150.00;5034307;28;20431;-85
2022/12/26 08:46:08;;;;;;;16.53;10.87;;;;;;;-143.84;41.04;45129.03;5051708;28;20890;-83
2022/12/26 08:48:37;;;;;;;21.70;13.63;;;;;;;-143.84;41.47;45151.91;5051421;28;20464;-80
2022/12/26 08:51:07;;;;;;;26.70;14.70;;;;;;;-143.84;41.42;45150.00;5051803;28;20492;-82
2022/12/26 08:53:35;;;;;;;16.20;10.17;;;;;;;-143.84;40.54;45121.44;5051192;28;20444;-85
2022/12/26 08:56:07;;;;;;;15.53;10.23;;;;;;;-143.84;40.78;45140.47;5051725;28;20430;-84
2022/12/26 08:58:34;;;;;;;19.03;9.53;;;;;;;-143.84;40.65;45106.19;5051389;28;20445;-81
2022/12/26 09:01:09;;;;;;;23.33;12.43;;;;;;;-143.84;40.77;45111.91;5051445;28;20438;-81
2022/12/26 09:03:37;;;;;;;17.83;10.97;;;;;;;-143.84;40.13;45129.03;5051594;28;20429;-81
2022/12/26 09:06:05;;;;;;;17.60;10.87;;;;;;;-143.84;40.74;45140.47;5051646;28;20812;-81
2022/12/26 09:08:33;;;;;;;11.40;8.47;;;;;;;-143.84;39.29;45119.53;5051377;28;20465;-83
2022/12/26 09:11:04;;;;;;;16.53;9.73;;;;;;;-143.84;39.47;45106.19;5055495;28;20499;-81
2022/12/26 09:13:31;;;;;;;18.67;10.63;;;;;;;-143.84;39.28;45090.97;5055241;28;20981;-85
2022/12/26 09:16:07;;;;;;;11.50;8.70;;;;;;;-143.84;38.60;45121.44;5055231;28;20430;-80
2022/12/26 09:18:35;;;;;;;21.43;10.70;;;;;;;-143.84;38.81;45144.28;5055077;28;20536;-83
2022/12/26 09:21:02;;;;;;;18.50;10.63;;;;;;;-143.84;39.52;45132.84;5054864;28;20862;-81
2022/12/26 09:23:29;;;;;;;14.03;9.23;;;;;;;-143.84;39.26;45121.44;5055049;28;20425;-80
2022/12/26 09:26:05;;;;;;;15.20;9.10;;;;;;;-143.84;39.54;45081.44;5055346;28;20956;-80
2022/12/26 09:28:33;;;;;;;9.70;7.97;;;;;;;-143.84;38.32;45127.13;5055157;28;20513;-81
2022/12/26 09:31:01;;;;;;;9.83;7.27;;;;;;;-143.84;39.15;45104.28;5055003;28;20423;-83
2022/12/26 09:33:28;;;;;;;8.53;5.07;;;;;;;-143.84;37.78;45106.19;5054864;28;20528;-85
2022/12/26 09:35:56;;;;;;;5.33;4.80;;;;;;;-143.84;37.55;45134.75;5054751;28;20965;-83
2022/12/26 09:38:23;;;;;;;8.37;6.60;;;;;;;-143.84;37.52;45123.34;5054523;28;20443;-84
2022/12/26 09:41:13;;;;;;;9.20;6.23;;;;;;;-143.84;38.08;45108.09;5054886;28;20968;-85
2022/12/26 09:43:51;;;;;;;8.00;5.90;;;;;;;-143.84;37.36;45104.28;5054790;28;20966;-84
2022/12/26 09:46:28;;;;;;;9.87;5.53;;;;;;;-143.84;37.03;45098.56;5054325;28;20512;-89
2022/12/26 09:49:02;;;;;;;7.40;6.60;;;;;;;-143.84;37.01;45129.03;5054799;28;20492;-82
2022/12/26 09:51:31;;;;;;;5.13;4.63;;;;;;;-143.84;36.40;45085.25;5053902;28;20435;-78
2022/12/26 09:54:00;;;;;;;5.57;4.70;;;;;;;-143.84;36.40;45090.97;5052552;28;20456;-79
2022/12/26 09:56:30;;;;;;;4.23;3.93;;;;;;;-143.84;36.74;45094.78;5052161;28;20445;-81
2022/12/26 09:59:00;;;;;;;5.90;4.27;;;;;;;-143.84;38.30;45117.63;5052288;28;20799;-79
2022/12/26 10:01:33;;;;;;;7.17;5.67;;;;;;;-143.84;37.64;45113.81;5054130;28;20491;-78
2022/12/26 10:04:01;;;;;;;9.30;7.10;;;;;;;-143.84;38.32;45119.53;5053653;28;20502;-79
2022/12/26 10:06:32;;;;;;;10.87;6.83;;;;;;;-143.84;37.84;45138.56;5054609;28;20433;-81
2022/12/26 10:09:12;;;;;;;8.57;6.03;;;;;;;-143.84;38.27;45106.19;5056812;28;20488;-82
2022/12/26 10:12:01;;;;;;;8.50;6.33;;;;;;;-143.84;38.72;45115.72;5053582;28;20950;-82
2022/12/26 10:14:40;;;;;;;12.17;8.10;;;;;;;-143.84;38.75;45113.81;5053994;28;20437;-81
2022/12/26 10:17:16;;;;;;;12.20;8.37;;;;;;;-143.84;38.63;45129.03;5054807;28;20502;-82
2022/12/26 10:20:03;;;;;;;10.57;4.63;;;;;;;-143.84;37.90;45125.22;5055016;28;20426;-82
2022/12/26 10:23:02;;;;;;;8.03;6.50;;;;;;;-143.84;38.00;45111.91;5054403;28;20483;-79
2022/12/26 10:25:41;;;;;;;6.03;4.07;;;;;;;-143.84;37.30;45111.91;5056981;28;20449;-79
2022/12/26 10:28:16;;;;;;;3.53;3.23;;;;;;;-143.84;36.81;45094.78;5060136;28;20469;-79
2022/12/26 10:30:46;;;;;;;4.10;2.97;;;;;;;-143.84;36.68;45098.56;5055961;28;20452;-79
2022/12/26 10:33:20;;;;;;;3.30;3.00;;;;;;;-143.84;36.94;45108.09;5053798;28;20540;-80
2022/12/26 10:35:48;;;;;;;3.50;2.80;;;;;;;-143.84;36.89;45111.91;5053974;28;20432;-80
2022/12/26 10:38:26;;;;;;;1.60;1.50;;;;;;;-143.84;36.32;45117.63;5053260;28;20414;-80
2022/12/26 10:40:57;;;;;;;3.90;3.30;;;;;;;-143.84;36.62;45134.75;5033980;28;20496;-80
2022/12/26 10:43:28;;;;;;;4.27;2.80;;;;;;;-143.84;36.63;45100.47;5067036;28;20434;-78
2022/12/26 10:46:35;;;;;;;9.17;6.83;;;;;;;-143.84;37.89;45119.53;5054655;28;20445;-78
2022/12/26 10:49:03;;;;;;;8.03;6.40;;;;;;;-143.84;37.84;45110.00;5048117;28;20473;-77
2022/12/26 10:51:31;;;;;;;7.67;5.03;;;;;;;-143.84;38.32;45119.53;5049064;28;20453;-78
2022/12/26 10:53:58;;;;;;;5.07;4.57;;;;;;;-143.84;38.14;45125.22;5052469;28;20468;-78
2022/12/26 10:56:27;;;;;;;7.40;6.70;;;;;;;-143.84;39.18;45113.81;5064039;28;20451;-79
2022/12/26 10:59:02;;;;;;;9.33;7.87;;;;;;;-143.84;39.87;45106.19;5051254;28;20490;-83
2022/12/26 11:01:35;;;;;;;10.73;7.87;;;;;;;-143.84;40.09;45121.44;5069636;28;20935;-84
2022/12/26 11:04:03;;;;;;;8.07;6.10;;;;;;;-143.84;40.00;45138.56;5053193;28;20426;-84
2022/12/26 11:06:35;;;;;;;8.90;7.97;;;;;;;-143.84;40.57;45148.09;5052988;28;20457;-84
2022/12/26 11:09:02;;;;;;;8.67;7.17;;;;;;;-143.84;41.01;45111.91;5059386;28;20476;-84
2022/12/26 11:11:45;;;;;;;6.13;5.40;;;;;;;-143.84;40.07;45113.81;5071148;28;20433;-83
2022/12/26 11:14:35;;;;;;;3.80;3.40;;;;;;;-143.84;38.69;45098.56;5052594;28;20456;-81
2022/12/26 11:17:06;;;;;;;5.47;4.27;;;;;;;-143.84;39.21;45119.53;5060362;28;20448;-80
2022/12/26 11:19:35;;;;;;;3.20;2.93;;;;;;;-143.84;39.44;45127.13;5072177;28;20478;-80
2022/12/26 11:22:25;;;;;;;3.30;3.00;;;;;;;-143.84;38.46;45121.44;5073535;28;20491;-78
2022/12/26 11:25:23;;;;;;;2.80;2.60;;;;;;;-143.84;38.91;45119.53;5070926;28;20445;-80
2022/12/26 11:27:53;;;;;;;2.33;2.17;;;;;;;-143.84;39.42;45117.63;5011274;28;20446;-79
2022/12/26 11:30:29;;;;;;;4.10;3.30;;;;;;;-143.84;39.39;45110.00;5063845;28;20441;-79
2022/12/26 11:33:15;;;;;;;2.80;2.60;;;;;;;-143.84;40.39;45121.44;5074511;28;20433;-80
2022/12/26 11:35:49;;;;;;;3.83;2.97;;;;;;;-143.84;40.36;45123.34;5075259;28;20448;-79
2022/12/26 11:43:47;;;;;;;7.03;4.90;;;;;;;-143.84;43.20;45146.19;5072636;28;20412;-77
2022/12/26 11:46:16;;;;;;;4.33;3.90;;;;;;;-143.84;43.22;45096.66;5053225;28;20445;-77
2022/12/26 11:48:50;;;;;;;4.07;3.77;;;;;;;-143.84;44.44;45104.28;5059058;28;20843;-78
2022/12/26 11:51:30;;;;;;;4.00;3.70;;;;;;;-143.84;44.10;45132.84;5072081;28;20441;-77
2022/12/26 11:54:18;;;;;;;4.87;4.37;;;;;;;-143.84;44.97;45146.19;5060848;28;20438;-77
2022/12/26 11:56:46;;;;;;;3.67;3.43;;;;;;;-143.84;45.95;45138.56;5068389;28;20576;-77
2022/12/26 11:59:19;;;;;;;3.53;3.30;;;;;;;-143.84;46.29;45113.81;5032225;28;20423;-77
2022/12/26 12:01:50;;;;;;;5.43;2.73;;;;;;;-143.84;46.12;45153.81;5032196;28;20878;-78
2022/12/26 12:04:17;;;;;;;4.23;3.40;;;;;;;-143.84;47.32;45150.00;5033739;28;20454;-81
2022/12/26 12:07:00;;;;;;;3.40;3.10;;;;;;;-143.84;47.32;45127.13;5039494;28;20430;-81
2022/12/26 12:09:35;;;;;;;2.90;2.57;;;;;;;-143.84;45.75;45125.22;5039195;28;21060;-81
2022/12/26 12:12:13;;;;;;;3.03;2.83;;;;;;;-143.84;45.01;45125.22;5040354;28;20792;-81
2022/12/26 12:14:55;;;;;;;2.40;2.20;;;;;;;-143.84;44.45;45155.69;5039172;28;20439;-81
2022/12/26 12:17:27;;;;;;;4.17;3.73;;;;;;;-143.84;46.04;45130.94;5039669;28;20878;-81
2022/12/26 12:20:10;;;;;;;3.33;3.03;;;;;;;-143.84;45.92;45134.75;5038292;28;20419;-81
2022/12/26 12:23:05;;;;;;;2.87;2.67;;;;;;;-143.84;46.37;45130.94;5038230;28;20488;-81
2022/12/26 12:25:49;;;;;;;3.00;2.80;;;;;;;-143.84;44.75;45130.94;5040104;28;20839;-81
2022/12/26 12:28:35;;;;;;;4.03;2.50;;;;;;;-143.84;45.73;45136.66;5050811;28;20858;-80
2022/12/26 12:31:08;;;;;;;2.40;2.30;;;;;;;-143.84;44.98;45136.66;5059757;28;20416;-80
2022/12/26 12:33:51;;;;;;;3.40;3.03;;;;;;;-143.84;47.34;45125.22;5058223;28;20431;-83
2022/12/26 12:36:22;;;;;;;3.70;3.33;;;;;;;-143.84;48.33;45125.22;5051901;28;20453;-83
2022/12/26 12:39:07;;;;;;;4.30;3.17;;;;;;;-143.84;48.02;45134.75;5051703;28;20513;-82
2022/12/26 12:42:05;;;;;;;4.00;3.30;;;;;;;-143.84;48.45;45140.47;5051756;28;20437;-81
2022/12/26 12:44:49;;;;;;;5.13;4.40;;;;;;;-143.84;50.25;45146.19;5055347;28;20421;-81
2022/12/26 12:47:24;;;;;;;4.50;3.83;;;;;;;-143.84;52.25;45142.38;5055712;28;20488;-81
2022/12/26 12:50:02;;;;;;;4.13;3.57;;;;;;;-143.84;53.40;45159.50;5055664;28;20473;-81
2022/12/26 12:52:41;;;;;;;5.00;4.03;;;;;;;-143.84;53.26;45132.84;5055767;28;20449;-81
2022/12/26 12:55:43;;;;;;;4.40;4.00;;;;;;;-143.84;55.24;45142.38;5054999;28;20511;-80
2022/12/26 12:58:19;;;;;;;5.40;4.90;;;;;;;-143.84;56.52;45151.91;5011933;28;20449;-84
2022/12/26 13:00:52;;;;;;;5.90;5.30;;;;;;;-143.84;56.45;45148.09;5035517;28;20443;-84
2022/12/26 13:03:27;;;;;;;9.80;5.80;;;;;;;-143.84;57.62;45132.84;5035535;28;20439;-84
2022/12/26 13:06:06;;;;;;;4.40;4.00;;;;;;;-143.84;58.50;45161.41;5043097;28;20506;-84
2022/12/26 13:08:40;;;;;;;4.33;3.73;;;;;;;-143.84;59.30;45146.19;5058932;28;20437;-83
2022/12/26 13:11:13;;;;;;;7.73;4.87;;;;;;;-143.84;60.49;45144.28;5070393;28;20442;-81
2022/12/26 13:13:44;;;;;;;5.50;5.00;;;;;;;-143.84;61.22;45144.28;5062142;28;20442;-81
2022/12/26 13:16:16;;;;;;;6.07;5.10;;;;;;;-143.84;62.23;45151.91;5055328;28;20422;-82
2022/12/26 13:18:50;;;;;;;6.73;4.93;;;;;;;-143.84;63.20;45144.28;5055561;28;20442;-82
2022/12/26 13:21:20;;;;;;;6.37;5.33;;;;;;;-143.84;63.97;45146.19;5055046;28;20477;-82
2022/12/26 13:26:38;;;;;;;9.50;5.43;;;;;;;-143.84;66.16;45170.94;5055275;28;20475;-80
2022/12/26 13:29:17;;;;;;;11.10;7.67;;;;;;;-143.84;66.65;45153.81;5055008;28;20546;-82
2022/12/26 13:31:45;;;;;;;7.90;6.30;;;;;;;-143.84;67.01;45159.50;5055365;28;20446;-81
2022/12/26 13:34:16;;;;;;;8.63;6.73;;;;;;;-143.84;67.85;45167.13;5054889;28;20438;-81
2022/12/26 13:36:47;;;;;;;7.40;6.57;;;;;;;-143.84;68.32;45153.81;5059780;28;20430;-81
2022/12/26 13:39:52;;;;;;;11.30;7.67;;;;;;;-143.84;69.75;45142.38;5054813;28;20511;-82
2022/12/26 13:45:46;;;;;;;13.57;9.03;;;;;;;-143.84;71.76;45157.59;5054649;28;20416;-77
2022/12/26 13:48:47;;;;;;;11.90;8.80;;;;;;;-143.84;72.50;45140.47;5054539;28;20546;-79
2022/12/26 13:51:43;;;;;;;10.27;8.37;;;;;;;-143.84;73.32;45130.94;5054034;28;20503;-82
2022/12/26 13:54:13;;;;;;;8.90;7.80;;;;;;;-143.84;73.62;45132.84;5054698;28;20579;-82
2022/12/26 13:57:19;;;;;;;13.47;9.50;;;;;;;-143.84;74.71;45140.47;5054321;28;20491;-79